sensor_id;sensor_type;location;lat;lon;timestamp;temperature;humidity
935;DHT22;454;53.254;10.400;2023-04-03T04:02:05;0.20;99.90
935;DHT22;454;53.254;10.400;2023-04-03T04:04:32;0.20;99.90
935;DHT22;454;53.254;10.400;2023-04-03T04:06:59;0.20;99.90
935;DHT22;454;53.254;10.400;2023-04-03T04:09:26;0.20;99.90
935;DHT22;454;53.254;10.400;2023-04-03T04:11:53;0.20;99.90
935;DHT22;454;53.254;10.400;2023-04-03T04:14:20;0.10;99.90
935;DHT22;454;53.254;10.400;2023-04-03T04:16:47;0.10;99.90
935;DHT22;454;53.254;10.400;2023-04-03T04:19:15;0.10;99.90
935;DHT22;454;53.254;10.400;2023-04-03T04:21:42;0.10;99.90
935;DHT22;454;53.254;10.400;2023-04-03T04:24:09;0.10;99.90
935;DHT22;454;53.254;10.400;2023-04-03T04:26:35;0.10;99.90
935;DHT22;454;53.254;10.400;2023-04-03T04:29:02;0.10;99.90
935;DHT22;454;53.254;10.400;2023-04-03T04:31:29;0.10;99.90
935;DHT22;454;53.254;10.400;2023-04-03T04:33:55;0.10;99.90
935;DHT22;454;53.254;10.400;2023-04-03T04:36:24;0.10;99.90
935;DHT22;454;53.254;10.400;2023-04-03T04:38:50;0.00;99.90
935;DHT22;454;53.254;10.400;2023-04-03T04:41:18;0.10;99.90
935;DHT22;454;53.254;10.400;2023-04-03T04:43:46;0.10;99.90
935;DHT22;454;53.254;10.400;2023-04-03T04:46:13;0.10;99.90
935;DHT22;454;53.254;10.400;2023-04-03T04:48:39;0.10;99.90
935;DHT22;454;53.254;10.400;2023-04-03T04:51:07;0.00;99.90
935;DHT22;454;53.254;10.400;2023-04-03T04:53:35;0.10;99.90
935;DHT22;454;53.254;10.400;2023-04-03T04:56:02;0.00;99.90
935;DHT22;454;53.254;10.400;2023-04-03T04:58:29;0.10;99.90
935;DHT22;454;53.254;10.400;2023-04-03T05:00:58;0.10;99.90
935;DHT22;454;53.254;10.400;2023-04-03T05:03:26;0.10;99.90
935;DHT22;454;53.254;10.400;2023-04-03T05:05:52;0.10;99.90
935;DHT22;454;53.254;10.400;2023-04-03T05:08:20;0.10;99.90
935;DHT22;454;53.254;10.400;2023-04-03T05:10:48;0.10;99.90
935;DHT22;454;53.254;10.400;2023-04-03T05:13:15;0.20;99.90
935;DHT22;454;53.254;10.400;2023-04-03T05:15:42;0.30;99.90
935;DHT22;454;53.254;10.400;2023-04-03T05:18:09;0.30;99.90
935;DHT22;454;53.254;10.400;2023-04-03T05:20:36;0.30;99.90
935;DHT22;454;53.254;10.400;2023-04-03T05:23:03;0.40;99.90
935;DHT22;454;53.254;10.400;2023-04-03T05:25:30;0.40;99.90
935;DHT22;454;53.254;10.400;2023-04-03T05:27:58;0.60;99.90
935;DHT22;454;53.254;10.400;2023-04-03T05:30:25;0.80;99.90
935;DHT22;454;53.254;10.400;2023-04-03T05:32:51;0.90;99.90
935;DHT22;454;53.254;10.400;2023-04-03T05:35:18;1.00;99.90
935;DHT22;454;53.254;10.400;2023-04-03T05:37:45;1.10;99.90
935;DHT22;454;53.254;10.400;2023-04-03T05:40:12;1.30;99.90
935;DHT22;454;53.254;10.400;2023-04-03T05:42:39;1.60;99.90
935;DHT22;454;53.254;10.400;2023-04-03T05:45:08;1.60;99.90
935;DHT22;454;53.254;10.400;2023-04-03T05:47:35;1.50;99.90
935;DHT22;454;53.254;10.400;2023-04-03T05:50:05;1.40;99.90
935;DHT22;454;53.254;10.400;2023-04-03T05:52:35;1.30;99.90
935;DHT22;454;53.254;10.400;2023-04-03T05:55:03;1.20;99.90
935;DHT22;454;53.254;10.400;2023-04-03T05:57:30;1.20;99.90
935;DHT22;454;53.254;10.400;2023-04-03T05:59:57;1.20;99.90
935;DHT22;454;53.254;10.400;2023-04-03T06:02:25;1.20;99.90
935;DHT22;454;53.254;10.400;2023-04-03T06:04:52;1.20;99.90
935;DHT22;454;53.254;10.400;2023-04-03T06:07:21;1.20;99.90
935;DHT22;454;53.254;10.400;2023-04-03T06:09:48;1.20;99.90
935;DHT22;454;53.254;10.400;2023-04-03T06:12:16;1.20;99.90
935;DHT22;454;53.254;10.400;2023-04-03T06:14:44;1.30;99.90
935;DHT22;454;53.254;10.400;2023-04-03T06:17:11;1.30;99.90
935;DHT22;454;53.254;10.400;2023-04-03T06:19:40;1.40;99.90
935;DHT22;454;53.254;10.400;2023-04-03T06:22:07;1.40;99.90
935;DHT22;454;53.254;10.400;2023-04-03T06:24:33;1.50;99.90
935;DHT22;454;53.254;10.400;2023-04-03T06:27:01;1.50;99.90
935;DHT22;454;53.254;10.400;2023-04-03T06:29:28;1.60;99.90
935;DHT22;454;53.254;10.400;2023-04-03T06:31:54;1.60;99.90
935;DHT22;454;53.254;10.400;2023-04-03T06:34:21;1.70;99.90
935;DHT22;454;53.254;10.400;2023-04-03T06:36:49;1.80;99.90
935;DHT22;454;53.254;10.400;2023-04-03T06:39:17;1.80;99.90
935;DHT22;454;53.254;10.400;2023-04-03T06:41:46;1.90;99.90
935;DHT22;454;53.254;10.400;2023-04-03T06:44:13;1.90;99.90
935;DHT22;454;53.254;10.400;2023-04-03T06:46:41;2.00;99.90
935;DHT22;454;53.254;10.400;2023-04-03T06:49:09;2.10;99.90
935;DHT22;454;53.254;10.400;2023-04-03T06:51:36;2.10;99.90
935;DHT22;454;53.254;10.400;2023-04-03T06:54:05;2.20;99.90
935;DHT22;454;53.254;10.400;2023-04-03T06:56:32;2.30;99.90
935;DHT22;454;53.254;10.400;2023-04-03T06:58:59;2.30;99.90
935;DHT22;454;53.254;10.400;2023-04-03T07:01:27;2.40;99.90
935;DHT22;454;53.254;10.400;2023-04-03T07:03:55;2.50;99.90
935;DHT22;454;53.254;10.400;2023-04-03T07:06:22;2.50;99.90
935;DHT22;454;53.254;10.400;2023-04-03T07:08:52;2.60;99.90
935;DHT22;454;53.254;10.400;2023-04-03T07:11:20;2.70;99.90
935;DHT22;454;53.254;10.400;2023-04-03T07:13:46;2.80;99.90
935;DHT22;454;53.254;10.400;2023-04-03T07:16:13;2.80;99.90
935;DHT22;454;53.254;10.400;2023-04-03T07:18:40;2.90;99.90
935;DHT22;454;53.254;10.400;2023-04-03T07:21:07;3.00;99.90
935;DHT22;454;53.254;10.400;2023-04-03T07:23:34;3.00;99.90
935;DHT22;454;53.254;10.400;2023-04-03T07:26:01;3.10;99.90
935;DHT22;454;53.254;10.400;2023-04-03T07:28:29;3.20;99.90
935;DHT22;454;53.254;10.400;2023-04-03T07:31:00;3.30;99.90
935;DHT22;454;53.254;10.400;2023-04-03T07:33:27;3.40;99.90
935;DHT22;454;53.254;10.400;2023-04-03T07:35:54;3.50;99.90
935;DHT22;454;53.254;10.400;2023-04-03T07:38:21;3.50;99.90
935;DHT22;454;53.254;10.400;2023-04-03T07:40:49;3.60;99.90
935;DHT22;454;53.254;10.400;2023-04-03T07:43:18;3.70;99.90
935;DHT22;454;53.254;10.400;2023-04-03T07:45:47;3.70;99.90
935;DHT22;454;53.254;10.400;2023-04-03T07:48:17;3.80;99.90
935;DHT22;454;53.254;10.400;2023-04-03T07:50:44;3.80;99.90
935;DHT22;454;53.254;10.400;2023-04-03T07:53:11;4.00;99.90
935;DHT22;454;53.254;10.400;2023-04-03T07:55:39;4.00;99.90
935;DHT22;454;53.254;10.400;2023-04-03T07:58:09;4.10;99.90
935;DHT22;454;53.254;10.400;2023-04-03T08:00:36;4.10;99.90
935;DHT22;454;53.254;10.400;2023-04-03T08:03:05;4.10;99.90
935;DHT22;454;53.254;10.400;2023-04-03T08:05:35;4.20;99.90
935;DHT22;454;53.254;10.400;2023-04-03T08:08:02;4.20;99.90
935;DHT22;454;53.254;10.400;2023-04-03T08:10:29;4.30;99.90
935;DHT22;454;53.254;10.400;2023-04-03T08:12:56;4.40;99.90
935;DHT22;454;53.254;10.400;2023-04-03T08:15:23;4.40;99.90
935;DHT22;454;53.254;10.400;2023-04-03T08:17:50;4.50;99.90
935;DHT22;454;53.254;10.400;2023-04-03T08:20:18;4.50;99.90
935;DHT22;454;53.254;10.400;2023-04-03T08:22:45;4.60;99.90
935;DHT22;454;53.254;10.400;2023-04-03T08:25:13;4.60;99.90
935;DHT22;454;53.254;10.400;2023-04-03T08:27:40;4.70;99.90
935;DHT22;454;53.254;10.400;2023-04-03T08:30:07;4.80;99.90
935;DHT22;454;53.254;10.400;2023-04-03T08:32:35;4.80;99.90
935;DHT22;454;53.254;10.400;2023-04-03T08:35:02;4.90;99.90
935;DHT22;454;53.254;10.400;2023-04-03T08:37:30;5.00;99.90
935;DHT22;454;53.254;10.400;2023-04-03T08:39:57;5.10;99.90
935;DHT22;454;53.254;10.400;2023-04-03T08:42:36;5.10;99.90
935;DHT22;454;53.254;10.400;2023-04-03T08:45:10;5.20;99.90
935;DHT22;454;53.254;10.400;2023-04-03T08:47:42;5.20;99.90
935;DHT22;454;53.254;10.400;2023-04-03T08:50:13;5.30;99.90
935;DHT22;454;53.254;10.400;2023-04-03T08:52:46;5.30;99.90
935;DHT22;454;53.254;10.400;2023-04-03T08:55:22;5.30;99.90
935;DHT22;454;53.254;10.400;2023-04-03T08:57:53;5.50;99.90
935;DHT22;454;53.254;10.400;2023-04-03T09:00:25;5.50;99.90
935;DHT22;454;53.254;10.400;2023-04-03T09:02:55;5.60;99.90
935;DHT22;454;53.254;10.400;2023-04-03T09:05:34;5.60;99.90
935;DHT22;454;53.254;10.400;2023-04-03T09:08:11;5.70;99.90
935;DHT22;454;53.254;10.400;2023-04-03T09:10:39;5.80;99.90
935;DHT22;454;53.254;10.400;2023-04-03T09:13:17;5.80;99.90
935;DHT22;454;53.254;10.400;2023-04-03T09:15:47;5.90;99.90
935;DHT22;454;53.254;10.400;2023-04-03T09:18:19;6.00;99.90
935;DHT22;454;53.254;10.400;2023-04-03T09:20:53;6.00;99.90
935;DHT22;454;53.254;10.400;2023-04-03T09:23:26;6.00;99.90
935;DHT22;454;53.254;10.400;2023-04-03T09:26:00;5.90;99.90
935;DHT22;454;53.254;10.400;2023-04-03T09:28:30;6.00;99.90
935;DHT22;454;53.254;10.400;2023-04-03T09:31:00;6.10;99.90
935;DHT22;454;53.254;10.400;2023-04-03T09:33:27;6.20;99.90
935;DHT22;454;53.254;10.400;2023-04-03T09:35:55;6.20;99.90
935;DHT22;454;53.254;10.400;2023-04-03T09:38:23;6.20;99.90
935;DHT22;454;53.254;10.400;2023-04-03T09:41:04;6.20;99.90
935;DHT22;454;53.254;10.400;2023-04-03T09:43:32;6.30;99.90
935;DHT22;454;53.254;10.400;2023-04-03T09:46:21;6.30;99.90
935;DHT22;454;53.254;10.400;2023-04-03T09:48:52;6.50;99.90
935;DHT22;454;53.254;10.400;2023-04-03T09:51:25;6.60;99.90
935;DHT22;454;53.254;10.400;2023-04-03T09:53:55;6.50;99.90
935;DHT22;454;53.254;10.400;2023-04-03T09:56:24;6.60;99.90
935;DHT22;454;53.254;10.400;2023-04-03T09:59:08;6.60;99.90
935;DHT22;454;53.254;10.400;2023-04-03T10:01:42;6.60;99.90
935;DHT22;454;53.254;10.400;2023-04-03T10:04:12;6.70;99.90
935;DHT22;454;53.254;10.400;2023-04-03T10:06:41;6.80;99.90
935;DHT22;454;53.254;10.400;2023-04-03T10:09:19;6.70;99.90
935;DHT22;454;53.254;10.400;2023-04-03T10:12:02;6.70;99.90
935;DHT22;454;53.254;10.400;2023-04-03T10:14:31;6.70;99.90
935;DHT22;454;53.254;10.400;2023-04-03T10:17:05;6.60;99.90
935;DHT22;454;53.254;10.400;2023-04-03T10:19:40;6.70;99.90
935;DHT22;454;53.254;10.400;2023-04-03T10:22:16;6.80;99.90
935;DHT22;454;53.254;10.400;2023-04-03T10:24:53;6.90;99.90
935;DHT22;454;53.254;10.400;2023-04-03T10:27:31;7.10;99.90
935;DHT22;454;53.254;10.400;2023-04-03T10:30:04;7.30;99.90
935;DHT22;454;53.254;10.400;2023-04-03T10:32:45;7.40;99.90
935;DHT22;454;53.254;10.400;2023-04-03T10:35:18;7.40;99.90
935;DHT22;454;53.254;10.400;2023-04-03T10:37:58;7.20;99.90
935;DHT22;454;53.254;10.400;2023-04-03T10:40:34;7.00;99.90
935;DHT22;454;53.254;10.400;2023-04-03T10:43:09;6.90;99.90
935;DHT22;454;53.254;10.400;2023-04-03T10:45:49;6.90;99.90
935;DHT22;454;53.254;10.400;2023-04-03T10:48:30;7.00;99.90
935;DHT22;454;53.254;10.400;2023-04-03T10:51:06;7.10;99.90
935;DHT22;454;53.254;10.400;2023-04-03T10:53:40;7.10;99.90
935;DHT22;454;53.254;10.400;2023-04-03T10:56:13;7.30;99.90
935;DHT22;454;53.254;10.400;2023-04-03T10:58:44;7.60;99.90
935;DHT22;454;53.254;10.400;2023-04-03T11:01:14;7.80;99.90
935;DHT22;454;53.254;10.400;2023-04-03T11:03:45;8.00;99.90
935;DHT22;454;53.254;10.400;2023-04-03T11:06:15;8.10;99.90
935;DHT22;454;53.254;10.400;2023-04-03T11:08:46;8.20;99.90
935;DHT22;454;53.254;10.400;2023-04-03T11:11:22;8.00;99.90
935;DHT22;454;53.254;10.400;2023-04-03T11:13:53;7.80;99.90
935;DHT22;454;53.254;10.400;2023-04-03T11:16:24;7.60;99.90
935;DHT22;454;53.254;10.400;2023-04-03T11:18:56;7.60;99.90
935;DHT22;454;53.254;10.400;2023-04-03T11:21:28;7.60;99.90
935;DHT22;454;53.254;10.400;2023-04-03T11:23:57;7.50;99.90
935;DHT22;454;53.254;10.400;2023-04-03T11:26:29;7.50;99.90
935;DHT22;454;53.254;10.400;2023-04-03T11:28:59;7.50;99.90
935;DHT22;454;53.254;10.400;2023-04-03T11:31:45;7.50;99.90
935;DHT22;454;53.254;10.400;2023-04-03T11:34:26;7.50;99.90
935;DHT22;454;53.254;10.400;2023-04-03T11:36:58;7.50;99.90
935;DHT22;454;53.254;10.400;2023-04-03T11:39:29;7.60;99.90
935;DHT22;454;53.254;10.400;2023-04-03T11:42:13;7.70;99.90
935;DHT22;454;53.254;10.400;2023-04-03T11:44:41;7.80;99.90
935;DHT22;454;53.254;10.400;2023-04-03T11:47:09;7.60;99.90
935;DHT22;454;53.254;10.400;2023-04-03T11:49:59;7.60;99.90
935;DHT22;454;53.254;10.400;2023-04-03T11:52:58;7.40;99.90
935;DHT22;454;53.254;10.400;2023-04-03T11:55:42;7.30;99.90
935;DHT22;454;53.254;10.400;2023-04-03T11:58:15;7.50;99.90
935;DHT22;454;53.254;10.400;2023-04-03T12:00:57;7.70;99.90
935;DHT22;454;53.254;10.400;2023-04-03T12:10:01;8.30;99.90
935;DHT22;454;53.254;10.400;2023-04-03T12:12:34;8.30;99.50
935;DHT22;454;53.254;10.400;2023-04-03T12:15:26;8.30;99.90
935;DHT22;454;53.254;10.400;2023-04-03T12:17:53;8.20;99.40
935;DHT22;454;53.254;10.400;2023-04-03T12:20:55;8.10;98.90
935;DHT22;454;53.254;10.400;2023-04-03T12:23:30;7.90;98.30
935;DHT22;454;53.254;10.400;2023-04-03T12:26:06;7.80;98.40
935;DHT22;454;53.254;10.400;2023-04-03T12:28:48;7.90;98.80
935;DHT22;454;53.254;10.400;2023-04-03T12:31:17;8.00;99.30
935;DHT22;454;53.254;10.400;2023-04-03T12:33:58;8.10;99.40
935;DHT22;454;53.254;10.400;2023-04-03T12:36:33;8.10;99.90
935;DHT22;454;53.254;10.400;2023-04-03T12:39:13;8.00;99.90
935;DHT22;454;53.254;10.400;2023-04-03T12:41:48;7.80;99.90
935;DHT22;454;53.254;10.400;2023-04-03T12:44:40;7.80;99.90
935;DHT22;454;53.254;10.400;2023-04-03T12:47:23;7.80;99.90
935;DHT22;454;53.254;10.400;2023-04-03T12:49:50;7.70;99.90
935;DHT22;454;53.254;10.400;2023-04-03T12:52:26;7.70;99.90
935;DHT22;454;53.254;10.400;2023-04-03T12:54:56;7.70;99.90
935;DHT22;454;53.254;10.400;2023-04-03T12:57:25;7.70;99.90
935;DHT22;454;53.254;10.400;2023-04-03T12:59:53;7.80;99.90
935;DHT22;454;53.254;10.400;2023-04-03T13:02:23;7.80;99.60
935;DHT22;454;53.254;10.400;2023-04-03T13:04:51;7.60;99.20
935;DHT22;454;53.254;10.400;2023-04-03T13:07:21;7.40;99.20
935;DHT22;454;53.254;10.400;2023-04-03T13:09:56;7.40;99.00
935;DHT22;454;53.254;10.400;2023-04-03T13:12:23;7.50;99.40
935;DHT22;454;53.254;10.400;2023-04-03T13:14:54;7.70;98.90
935;DHT22;454;53.254;10.400;2023-04-03T13:17:23;7.90;98.70
935;DHT22;454;53.254;10.400;2023-04-03T13:19:50;8.20;98.00
935;DHT22;454;53.254;10.400;2023-04-03T13:22:26;8.40;97.50
935;DHT22;454;53.254;10.400;2023-04-03T13:24:54;8.40;97.90
935;DHT22;454;53.254;10.400;2023-04-03T13:27:22;8.30;98.70
935;DHT22;454;53.254;10.400;2023-04-03T13:29:50;8.30;98.80
935;DHT22;454;53.254;10.400;2023-04-03T13:32:21;8.10;98.70
935;DHT22;454;53.254;10.400;2023-04-03T13:34:50;7.90;99.20
935;DHT22;454;53.254;10.400;2023-04-03T13:37:22;7.70;99.20
935;DHT22;454;53.254;10.400;2023-04-03T13:40:03;7.50;98.90
935;DHT22;454;53.254;10.400;2023-04-03T13:42:32;7.50;98.90
935;DHT22;454;53.254;10.400;2023-04-03T13:45:18;7.60;99.50
935;DHT22;454;53.254;10.400;2023-04-03T13:47:47;7.80;98.90
935;DHT22;454;53.254;10.400;2023-04-03T13:50:18;8.00;98.70
935;DHT22;454;53.254;10.400;2023-04-03T13:52:47;8.00;97.00
935;DHT22;454;53.254;10.400;2023-04-03T13:55:21;8.10;97.60
935;DHT22;454;53.254;10.400;2023-04-03T13:57:51;8.30;97.90
935;DHT22;454;53.254;10.400;2023-04-03T14:00:21;8.30;97.50
935;DHT22;454;53.254;10.400;2023-04-03T14:02:55;8.00;96.60
935;DHT22;454;53.254;10.400;2023-04-03T14:05:24;7.70;96.00
935;DHT22;454;53.254;10.400;2023-04-03T14:07:52;7.50;96.80
935;DHT22;454;53.254;10.400;2023-04-03T14:10:19;7.50;97.50
935;DHT22;454;53.254;10.400;2023-04-03T14:12:46;7.60;98.10
935;DHT22;454;53.254;10.400;2023-04-03T14:15:18;7.70;98.80
935;DHT22;454;53.254;10.400;2023-04-03T14:17:45;7.70;97.20
935;DHT22;454;53.254;10.400;2023-04-03T14:20:15;7.60;97.70
935;DHT22;454;53.254;10.400;2023-04-03T14:22:43;7.60;98.80
935;DHT22;454;53.254;10.400;2023-04-03T14:25:11;7.70;98.70
935;DHT22;454;53.254;10.400;2023-04-03T14:27:39;7.80;98.40
935;DHT22;454;53.254;10.400;2023-04-03T14:30:12;7.90;98.40
935;DHT22;454;53.254;10.400;2023-04-03T14:32:39;8.00;97.30
935;DHT22;454;53.254;10.400;2023-04-03T14:35:06;8.10;96.20
935;DHT22;454;53.254;10.400;2023-04-03T14:37:33;7.90;96.90
935;DHT22;454;53.254;10.400;2023-04-03T14:40:04;7.70;96.80
935;DHT22;454;53.254;10.400;2023-04-03T14:42:32;7.50;97.10
935;DHT22;454;53.254;10.400;2023-04-03T14:45:08;7.40;97.60
935;DHT22;454;53.254;10.400;2023-04-03T14:47:40;7.40;97.30
935;DHT22;454;53.254;10.400;2023-04-03T14:50:11;7.40;96.70
935;DHT22;454;53.254;10.400;2023-04-03T14:52:39;7.40;96.90
935;DHT22;454;53.254;10.400;2023-04-03T14:55:08;7.50;97.40
935;DHT22;454;53.254;10.400;2023-04-03T14:57:35;7.60;97.40
935;DHT22;454;53.254;10.400;2023-04-03T15:00:03;7.60;97.30
935;DHT22;454;53.254;10.400;2023-04-03T15:02:32;7.60;97.40
935;DHT22;454;53.254;10.400;2023-04-03T15:05:00;7.50;97.80
935;DHT22;454;53.254;10.400;2023-04-03T15:07:30;7.50;97.90
935;DHT22;454;53.254;10.400;2023-04-03T15:09:59;7.40;97.60
935;DHT22;454;53.254;10.400;2023-04-03T15:12:29;7.40;97.60
935;DHT22;454;53.254;10.400;2023-04-03T15:14:55;7.30;97.50
935;DHT22;454;53.254;10.400;2023-04-03T15:17:22;7.30;97.10
935;DHT22;454;53.254;10.400;2023-04-03T15:19:50;7.40;97.30
935;DHT22;454;53.254;10.400;2023-04-03T15:22:18;7.30;96.30
935;DHT22;454;53.254;10.400;2023-04-03T15:24:45;7.30;96.20
935;DHT22;454;53.254;10.400;2023-04-03T15:27:13;7.20;95.60
935;DHT22;454;53.254;10.400;2023-04-03T15:29:42;7.30;96.10
935;DHT22;454;53.254;10.400;2023-04-03T15:32:10;7.20;96.30
935;DHT22;454;53.254;10.400;2023-04-03T15:34:37;7.30;96.20
935;DHT22;454;53.254;10.400;2023-04-03T15:37:04;7.30;96.10
935;DHT22;454;53.254;10.400;2023-04-03T15:39:31;7.30;95.50
935;DHT22;454;53.254;10.400;2023-04-03T15:41:58;7.20;95.80
935;DHT22;454;53.254;10.400;2023-04-03T15:44:32;7.20;94.70
935;DHT22;454;53.254;10.400;2023-04-03T15:47:00;7.10;94.60
935;DHT22;454;53.254;10.400;2023-04-03T15:49:27;7.20;95.40
935;DHT22;454;53.254;10.400;2023-04-03T15:51:54;7.20;94.80
935;DHT22;454;53.254;10.400;2023-04-03T15:54:21;7.10;95.10
935;DHT22;454;53.254;10.400;2023-04-03T15:56:49;7.00;96.10
935;DHT22;454;53.254;10.400;2023-04-03T15:59:16;7.00;96.10
935;DHT22;454;53.254;10.400;2023-04-03T16:01:42;6.90;95.60
935;DHT22;454;53.254;10.400;2023-04-03T16:04:11;6.90;95.40
935;DHT22;454;53.254;10.400;2023-04-03T16:06:38;6.90;95.40
935;DHT22;454;53.254;10.400;2023-04-03T16:09:06;6.80;94.70
935;DHT22;454;53.254;10.400;2023-04-03T16:11:33;6.80;95.20
935;DHT22;454;53.254;10.400;2023-04-03T16:14:00;6.80;96.20
935;DHT22;454;53.254;10.400;2023-04-03T16:16:27;6.80;96.70
935;DHT22;454;53.254;10.400;2023-04-03T16:18:54;6.80;97.80
935;DHT22;454;53.254;10.400;2023-04-03T16:21:23;6.80;97.40
935;DHT22;454;53.254;10.400;2023-04-03T16:23:50;6.70;97.00
935;DHT22;454;53.254;10.400;2023-04-03T16:26:17;6.70;96.90
935;DHT22;454;53.254;10.400;2023-04-03T16:28:44;6.70;97.50
935;DHT22;454;53.254;10.400;2023-04-03T16:31:11;6.60;97.80
935;DHT22;454;53.254;10.400;2023-04-03T16:33:38;6.60;98.00
935;DHT22;454;53.254;10.400;2023-04-03T16:36:05;6.50;98.10
935;DHT22;454;53.254;10.400;2023-04-03T16:38:33;6.50;98.40
935;DHT22;454;53.254;10.400;2023-04-03T16:41:00;6.40;98.00
935;DHT22;454;53.254;10.400;2023-04-03T16:43:29;6.40;98.10
935;DHT22;454;53.254;10.400;2023-04-03T16:45:56;6.40;98.10
935;DHT22;454;53.254;10.400;2023-04-03T16:48:23;6.30;97.80
935;DHT22;454;53.254;10.400;2023-04-03T16:50:50;6.40;98.70
935;DHT22;454;53.254;10.400;2023-04-03T16:53:18;6.30;98.70
935;DHT22;454;53.254;10.400;2023-04-03T16:55:47;6.30;98.40
935;DHT22;454;53.254;10.400;2023-04-03T16:58:13;6.20;97.70
935;DHT22;454;53.254;10.400;2023-04-03T17:00:40;6.10;97.10
935;DHT22;454;53.254;10.400;2023-04-03T17:03:07;6.10;97.50
935;DHT22;454;53.254;10.400;2023-04-03T17:05:34;6.00;97.40
935;DHT22;454;53.254;10.400;2023-04-03T17:08:01;6.00;97.00
935;DHT22;454;53.254;10.400;2023-04-03T17:10:28;5.90;97.00
935;DHT22;454;53.254;10.400;2023-04-03T17:12:57;5.80;96.90
935;DHT22;454;53.254;10.400;2023-04-03T17:15:24;5.80;97.00
935;DHT22;454;53.254;10.400;2023-04-03T17:17:51;5.80;96.90
935;DHT22;454;53.254;10.400;2023-04-03T17:20:19;5.70;97.50
935;DHT22;454;53.254;10.400;2023-04-03T17:22:46;5.70;98.40
935;DHT22;454;53.254;10.400;2023-04-03T17:25:13;5.60;98.90
935;DHT22;454;53.254;10.400;2023-04-03T17:27:40;5.60;99.30
935;DHT22;454;53.254;10.400;2023-04-03T17:30:09;5.50;99.90
935;DHT22;454;53.254;10.400;2023-04-03T17:32:36;5.50;99.90
935;DHT22;454;53.254;10.400;2023-04-03T17:35:04;5.40;99.90
935;DHT22;454;53.254;10.400;2023-04-03T17:37:31;5.40;99.90
935;DHT22;454;53.254;10.400;2023-04-03T17:39:58;5.30;99.90
935;DHT22;454;53.254;10.400;2023-04-03T17:42:25;5.30;99.90
935;DHT22;454;53.254;10.400;2023-04-03T17:44:51;5.20;99.90
935;DHT22;454;53.254;10.400;2023-04-03T17:47:19;5.20;99.90
935;DHT22;454;53.254;10.400;2023-04-03T17:49:46;5.10;99.90
935;DHT22;454;53.254;10.400;2023-04-03T17:52:13;5.10;99.90
935;DHT22;454;53.254;10.400;2023-04-03T17:54:42;5.00;99.90
935;DHT22;454;53.254;10.400;2023-04-03T17:57:09;5.00;99.90
935;DHT22;454;53.254;10.400;2023-04-03T17:59:36;4.90;99.90
935;DHT22;454;53.254;10.400;2023-04-03T18:02:02;4.90;99.90
935;DHT22;454;53.254;10.400;2023-04-03T18:04:30;4.80;99.90
935;DHT22;454;53.254;10.400;2023-04-03T18:06:57;4.80;99.90
935;DHT22;454;53.254;10.400;2023-04-03T18:09:26;4.70;99.90
935;DHT22;454;53.254;10.400;2023-04-03T18:11:54;4.70;99.90
935;DHT22;454;53.254;10.400;2023-04-03T18:14:24;4.60;99.90
935;DHT22;454;53.254;10.400;2023-04-03T18:16:51;4.60;99.90
935;DHT22;454;53.254;10.400;2023-04-03T18:19:18;4.50;99.90
935;DHT22;454;53.254;10.400;2023-04-03T18:21:46;4.50;99.90
935;DHT22;454;53.254;10.400;2023-04-03T18:24:16;4.40;99.90
935;DHT22;454;53.254;10.400;2023-04-03T18:26:44;4.40;99.90
935;DHT22;454;53.254;10.400;2023-04-03T18:29:13;4.30;99.90
935;DHT22;454;53.254;10.400;2023-04-03T18:31:43;4.30;99.90
935;DHT22;454;53.254;10.400;2023-04-03T18:34:11;4.30;99.90
935;DHT22;454;53.254;10.400;2023-04-03T18:36:38;4.20;99.90
935;DHT22;454;53.254;10.400;2023-04-03T18:39:06;4.20;99.90
935;DHT22;454;53.254;10.400;2023-04-03T18:41:34;4.10;99.90
935;DHT22;454;53.254;10.400;2023-04-03T18:44:04;4.10;99.90
935;DHT22;454;53.254;10.400;2023-04-03T18:46:32;4.00;99.90
935;DHT22;454;53.254;10.400;2023-04-03T18:48:59;4.00;99.90
935;DHT22;454;53.254;10.400;2023-04-03T18:51:26;3.90;99.90
935;DHT22;454;53.254;10.400;2023-04-03T18:53:53;3.90;99.90
935;DHT22;454;53.254;10.400;2023-04-03T18:56:21;3.90;99.90
935;DHT22;454;53.254;10.400;2023-04-03T18:58:48;3.80;99.90
935;DHT22;454;53.254;10.400;2023-04-03T19:01:15;3.80;99.90
935;DHT22;454;53.254;10.400;2023-04-03T19:03:42;3.70;99.90
935;DHT22;454;53.254;10.400;2023-04-03T19:06:09;3.70;99.90
935;DHT22;454;53.254;10.400;2023-04-03T19:08:36;3.70;99.90
935;DHT22;454;53.254;10.400;2023-04-03T19:11:03;3.60;99.90
935;DHT22;454;53.254;10.400;2023-04-03T19:13:31;3.60;99.90
935;DHT22;454;53.254;10.400;2023-04-03T19:15:58;3.60;99.90
935;DHT22;454;53.254;10.400;2023-04-03T19:18:25;3.50;99.90
935;DHT22;454;53.254;10.400;2023-04-03T19:20:54;3.50;99.90
935;DHT22;454;53.254;10.400;2023-04-03T19:23:21;3.40;99.90
935;DHT22;454;53.254;10.400;2023-04-03T19:25:56;3.40;99.90
935;DHT22;454;53.254;10.400;2023-04-03T19:28:23;3.40;99.90
935;DHT22;454;53.254;10.400;2023-04-03T19:30:51;3.30;99.90
935;DHT22;454;53.254;10.400;2023-04-03T19:33:18;3.30;99.90
935;DHT22;454;53.254;10.400;2023-04-03T19:35:45;3.20;99.90
935;DHT22;454;53.254;10.400;2023-04-03T19:38:12;3.20;99.90
935;DHT22;454;53.254;10.400;2023-04-03T19:40:39;3.20;99.90
935;DHT22;454;53.254;10.400;2023-04-03T19:43:09;3.10;99.90
935;DHT22;454;53.254;10.400;2023-04-03T19:45:36;3.00;99.90
935;DHT22;454;53.254;10.400;2023-04-03T19:48:04;3.00;99.90
935;DHT22;454;53.254;10.400;2023-04-03T19:50:31;3.00;99.90
935;DHT22;454;53.254;10.400;2023-04-03T19:52:58;2.90;99.90
935;DHT22;454;53.254;10.400;2023-04-03T19:55:26;2.90;99.90
935;DHT22;454;53.254;10.400;2023-04-03T19:57:56;2.80;99.90
935;DHT22;454;53.254;10.400;2023-04-03T20:00:24;2.80;99.90
935;DHT22;454;53.254;10.400;2023-04-03T20:02:51;2.80;99.90
935;DHT22;454;53.254;10.400;2023-04-03T20:05:19;2.70;99.90
935;DHT22;454;53.254;10.400;2023-04-03T20:07:46;2.70;99.90
935;DHT22;454;53.254;10.400;2023-04-03T20:10:13;2.60;99.90
935;DHT22;454;53.254;10.400;2023-04-03T20:12:41;2.60;99.90
935;DHT22;454;53.254;10.400;2023-04-03T20:15:09;2.50;99.90
935;DHT22;454;53.254;10.400;2023-04-03T20:17:36;2.50;99.90
935;DHT22;454;53.254;10.400;2023-04-03T20:20:05;2.50;99.90
935;DHT22;454;53.254;10.400;2023-04-03T20:22:34;2.40;99.90
935;DHT22;454;53.254;10.400;2023-04-03T20:25:02;2.40;99.90
935;DHT22;454;53.254;10.400;2023-04-03T20:27:29;2.30;99.90
935;DHT22;454;53.254;10.400;2023-04-03T20:29:56;2.30;99.90
935;DHT22;454;53.254;10.400;2023-04-03T20:32:23;2.30;99.90
935;DHT22;454;53.254;10.400;2023-04-03T20:34:50;2.30;99.90
935;DHT22;454;53.254;10.400;2023-04-03T20:37:17;2.20;99.90
935;DHT22;454;53.254;10.400;2023-04-03T20:39:48;2.20;99.90
935;DHT22;454;53.254;10.400;2023-04-03T20:42:15;2.20;99.90
935;DHT22;454;53.254;10.400;2023-04-03T20:44:42;2.20;99.90
935;DHT22;454;53.254;10.400;2023-04-03T20:47:10;2.10;99.90
935;DHT22;454;53.254;10.400;2023-04-03T20:49:37;2.10;99.90
935;DHT22;454;53.254;10.400;2023-04-03T20:52:03;2.10;99.90
935;DHT22;454;53.254;10.400;2023-04-03T20:54:30;2.10;99.90
935;DHT22;454;53.254;10.400;2023-04-03T20:56:59;2.10;99.90